sensor_id;sensor_type;location;lat;lon;timestamp;pressure;altitude;pressure_sealevel;temperature;humidity
5296;BME280;2670;42.720;23.336;2023-05-25T00:02:06;-22822.22;;;13.08;100.00
5296;BME280;2670;42.720;23.336;2023-05-25T00:04:32;-22819.84;;;13.00;100.00
5296;BME280;2670;42.720;23.336;2023-05-25T00:07:02;-22818.53;;;12.95;100.00
5296;BME280;2670;42.720;23.336;2023-05-25T00:09:29;-22818.09;;;12.93;100.00
5296;BME280;2670;42.720;23.336;2023-05-25T00:11:56;-22818.66;;;12.95;100.00
5296;BME280;2670;42.720;23.336;2023-05-25T00:14:24;-22818.53;;;12.95;100.00
5296;BME280;2670;42.720;23.336;2023-05-25T00:16:50;-22816.59;;;12.88;100.00
5296;BME280;2670;42.720;23.336;2023-05-25T00:19:17;-22816.59;;;12.88;100.00
5296;BME280;2670;42.720;23.336;2023-05-25T00:21:44;-22816.47;;;12.88;100.00
5296;BME280;2670;42.720;23.336;2023-05-25T00:24:14;-22817.19;;;12.90;100.00
5296;BME280;2670;42.720;23.336;2023-05-25T00:26:40;-22811.88;;;12.72;100.00
5296;BME280;2670;42.720;23.336;2023-05-25T00:29:07;-22812.03;;;12.73;100.00
5296;BME280;2670;42.720;23.336;2023-05-25T00:31:34;-22811.00;;;12.69;100.00
5296;BME280;2670;42.720;23.336;2023-05-25T00:34:00;-22810.09;;;12.66;100.00
5296;BME280;2670;42.720;23.336;2023-05-25T00:36:27;-22808.47;;;12.60;100.00
5296;BME280;2670;42.720;23.336;2023-05-25T00:38:54;-22804.19;;;12.45;100.00
5296;BME280;2670;42.720;23.336;2023-05-25T00:41:22;-22805.53;;;12.50;100.00
5296;BME280;2670;42.720;23.336;2023-05-25T00:43:50;-22805.38;;;12.50;100.00
5296;BME280;2670;42.720;23.336;2023-05-25T00:46:17;-22804.94;;;12.48;100.00
5296;BME280;2670;42.720;23.336;2023-05-25T00:48:44;-22803.91;;;12.44;100.00
5296;BME280;2670;42.720;23.336;2023-05-25T00:51:12;-22804.78;;;12.48;100.00
5296;BME280;2670;42.720;23.336;2023-05-25T00:53:40;-22803.44;;;12.43;100.00
5296;BME280;2670;42.720;23.336;2023-05-25T00:56:12;-22801.53;;;12.36;100.00
5296;BME280;2670;42.720;23.336;2023-05-25T00:58:41;-22801.53;;;12.36;100.00
5296;BME280;2670;42.720;23.336;2023-05-25T01:01:09;-22799.00;;;12.28;100.00
5296;BME280;2670;42.720;23.336;2023-05-25T01:03:38;-22800.94;;;12.34;100.00
5296;BME280;2670;42.720;23.336;2023-05-25T01:06:10;-22800.34;;;12.32;100.00
5296;BME280;2670;42.720;23.336;2023-05-25T01:08:39;-22800.06;;;12.31;100.00
5296;BME280;2670;42.720;23.336;2023-05-25T01:11:10;-22799.31;;;12.29;100.00
5296;BME280;2670;42.720;23.336;2023-05-25T01:13:37;-22799.91;;;12.31;100.00
5296;BME280;2670;42.720;23.336;2023-05-25T01:16:06;-22798.88;;;12.27;100.00
5296;BME280;2670;42.720;23.336;2023-05-25T01:18:34;-22797.53;;;12.23;100.00
5296;BME280;2670;42.720;23.336;2023-05-25T01:21:12;-22795.63;;;12.16;100.00
5296;BME280;2670;42.720;23.336;2023-05-25T01:23:51;-22795.47;;;12.15;100.00
5296;BME280;2670;42.720;23.336;2023-05-25T01:26:22;-22795.03;;;12.14;100.00
5296;BME280;2670;42.720;23.336;2023-05-25T01:28:52;-22791.63;;;12.02;100.00
5296;BME280;2670;42.720;23.336;2023-05-25T01:31:21;-22789.72;;;11.95;100.00
5296;BME280;2670;42.720;23.336;2023-05-25T01:33:49;-22789.72;;;11.95;100.00
5296;BME280;2670;42.720;23.336;2023-05-25T01:36:18;-22790.16;;;11.97;100.00
5296;BME280;2670;42.720;23.336;2023-05-25T01:38:45;-22790.72;;;11.99;100.00
5296;BME280;2670;42.720;23.336;2023-05-25T01:41:12;-22785.13;;;11.80;100.00
5296;BME280;2670;42.720;23.336;2023-05-25T01:43:39;-22786.88;;;11.86;100.00
5296;BME280;2670;42.720;23.336;2023-05-25T01:46:12;-22787.50;;;11.88;100.00
5296;BME280;2670;42.720;23.336;2023-05-25T01:48:47;-22787.63;;;11.88;100.00
5296;BME280;2670;42.720;23.336;2023-05-25T01:51:24;-22786.44;;;11.84;100.00
5296;BME280;2670;42.720;23.336;2023-05-25T01:53:57;-22788.06;;;11.90;100.00
5296;BME280;2670;42.720;23.336;2023-05-25T01:56:27;-22788.22;;;11.90;100.00
5296;BME280;2670;42.720;23.336;2023-05-25T01:58:56;-22790.16;;;11.97;100.00
5296;BME280;2670;42.720;23.336;2023-05-25T02:01:24;-22788.53;;;11.91;100.00
5296;BME280;2670;42.720;23.336;2023-05-25T02:03:52;-22788.06;;;11.90;100.00
5296;BME280;2670;42.720;23.336;2023-05-25T02:06:20;-22786.75;;;11.85;100.00
5296;BME280;2670;42.720;23.336;2023-05-25T02:08:47;-22787.03;;;11.86;100.00
5296;BME280;2670;42.720;23.336;2023-05-25T02:11:14;-22786.75;;;11.85;100.00
5296;BME280;2670;42.720;23.336;2023-05-25T02:13:40;-22785.25;;;11.80;100.00
5296;BME280;2670;42.720;23.336;2023-05-25T02:16:07;-22781.28;;;11.66;100.00
5296;BME280;2670;42.720;23.336;2023-05-25T02:18:34;-22781.13;;;11.66;100.00
5296;BME280;2670;42.720;23.336;2023-05-25T02:21:01;-22783.19;;;11.73;100.00
5296;BME280;2670;42.720;23.336;2023-05-25T02:23:29;-22782.00;;;11.69;100.00
5296;BME280;2670;42.720;23.336;2023-05-25T02:25:56;-22780.22;;;11.63;100.00
5296;BME280;2670;42.720;23.336;2023-05-25T02:28:22;-22777.88;;;11.55;100.00
5296;BME280;2670;42.720;23.336;2023-05-25T02:30:49;-22775.50;;;11.46;100.00
5296;BME280;2670;42.720;23.336;2023-05-25T02:33:16;-22777.28;;;11.53;100.00
5296;BME280;2670;42.720;23.336;2023-05-25T02:35:43;-22776.38;;;11.50;100.00
5296;BME280;2670;42.720;23.336;2023-05-25T02:38:10;-22777.56;;;11.54;100.00
5296;BME280;2670;42.720;23.336;2023-05-25T02:40:38;-22775.34;;;11.46;100.00
5296;BME280;2670;42.720;23.336;2023-05-25T02:43:04;-22774.16;;;11.42;100.00
5296;BME280;2670;42.720;23.336;2023-05-25T02:45:31;-22774.31;;;11.42;100.00
5296;BME280;2670;42.720;23.336;2023-05-25T02:47:58;-22773.72;;;11.40;100.00
5296;BME280;2670;42.720;23.336;2023-05-25T02:50:25;-22773.56;;;11.40;100.00
5296;BME280;2670;42.720;23.336;2023-05-25T02:52:51;-22771.66;;;11.33;100.00
5296;BME280;2670;42.720;23.336;2023-05-25T02:55:18;-22771.66;;;11.33;100.00
5296;BME280;2670;42.720;23.336;2023-05-25T02:57:46;-22772.97;;;11.38;100.00
5296;BME280;2670;42.720;23.336;2023-05-25T03:00:14;-22773.13;;;11.38;100.00
5296;BME280;2670;42.720;23.336;2023-05-25T03:02:41;-22770.16;;;11.28;100.00
5296;BME280;2670;42.720;23.336;2023-05-25T03:05:11;-22772.09;;;11.35;100.00
5296;BME280;2670;42.720;23.336;2023-05-25T03:07:37;-22770.31;;;11.29;100.00
5296;BME280;2670;42.720;23.336;2023-05-25T03:10:04;-22772.53;;;11.36;100.00
5296;BME280;2670;42.720;23.336;2023-05-25T03:12:31;-22772.53;;;11.36;100.00
5296;BME280;2670;42.720;23.336;2023-05-25T03:14:59;-22772.09;;;11.35;100.00
5296;BME280;2670;42.720;23.336;2023-05-25T03:17:26;-22770.75;;;11.30;100.00
5296;BME280;2670;42.720;23.336;2023-05-25T03:19:53;-22768.84;;;11.23;100.00
5296;BME280;2670;42.720;23.336;2023-05-25T03:22:19;-22767.66;;;11.19;100.00
5296;BME280;2670;42.720;23.336;2023-05-25T03:24:46;-22768.09;;;11.21;100.00
5296;BME280;2670;42.720;23.336;2023-05-25T03:27:13;-22768.41;;;11.22;100.00
5296;BME280;2670;42.720;23.336;2023-05-25T03:29:40;-22768.53;;;11.22;100.00
5296;BME280;2670;42.720;23.336;2023-05-25T03:32:08;-22767.22;;;11.18;100.00
5296;BME280;2670;42.720;23.336;2023-05-25T03:34:35;-22768.69;;;11.23;100.00
5296;BME280;2670;42.720;23.336;2023-05-25T03:37:01;-22770.03;;;11.28;100.00
5296;BME280;2670;42.720;23.336;2023-05-25T03:39:28;-22770.47;;;11.29;100.00
5296;BME280;2670;42.720;23.336;2023-05-25T03:41:55;-22767.81;;;11.20;100.00
5296;BME280;2670;42.720;23.336;2023-05-25T03:44:22;-22770.03;;;11.28;100.00
5296;BME280;2670;42.720;23.336;2023-05-25T03:46:49;-22770.75;;;11.30;100.00
5296;BME280;2670;42.720;23.336;2023-05-25T03:49:17;-22773.44;;;11.39;100.00
5296;BME280;2670;42.720;23.336;2023-05-25T03:51:44;-22774.16;;;11.42;100.00
5296;BME280;2670;42.720;23.336;2023-05-25T03:54:11;-22772.69;;;11.37;100.00
5296;BME280;2670;42.720;23.336;2023-05-25T03:56:37;-22774.59;;;11.43;100.00
5296;BME280;2670;42.720;23.336;2023-05-25T03:59:04;-22774.47;;;11.43;100.00
5296;BME280;2670;42.720;23.336;2023-05-25T04:01:31;-22776.81;;;11.51;100.00
5296;BME280;2670;42.720;23.336;2023-05-25T04:03:57;-22777.88;;;11.55;100.00
5296;BME280;2670;42.720;23.336;2023-05-25T04:06:26;-22778.75;;;11.58;100.00
5296;BME280;2670;42.720;23.336;2023-05-25T04:08:54;-22780.09;;;11.62;100.00
5296;BME280;2670;42.720;23.336;2023-05-25T04:11:22;-22782.91;;;11.72;100.00
5296;BME280;2670;42.720;23.336;2023-05-25T04:13:49;-22787.19;;;11.87;100.00
5296;BME280;2670;42.720;23.336;2023-05-25T04:16:16;-22784.22;;;11.77;100.00
5296;BME280;2670;42.720;23.336;2023-05-25T04:18:43;-22785.56;;;11.81;100.00
5296;BME280;2670;42.720;23.336;2023-05-25T04:21:10;-22788.38;;;11.91;100.00
5296;BME280;2670;42.720;23.336;2023-05-25T04:23:38;-22785.13;;;11.80;100.00
5296;BME280;2670;42.720;23.336;2023-05-25T04:26:04;-22789.84;;;11.96;100.00
5296;BME280;2670;42.720;23.336;2023-05-25T04:28:34;-22789.56;;;11.95;100.00
5296;BME280;2670;42.720;23.336;2023-05-25T04:31:01;-22788.38;;;11.91;100.00
5296;BME280;2670;42.720;23.336;2023-05-25T04:33:28;-22792.38;;;12.05;100.00
5296;BME280;2670;42.720;23.336;2023-05-25T04:35:54;-22792.66;;;12.06;100.00
5296;BME280;2670;42.720;23.336;2023-05-25T04:38:23;-22798.44;;;12.26;100.00
5296;BME280;2670;42.720;23.336;2023-05-25T04:40:51;-22793.69;;;12.09;100.00
5296;BME280;2670;42.720;23.336;2023-05-25T04:43:18;-22794.44;;;12.12;100.00
5296;BME280;2670;42.720;23.336;2023-05-25T04:45:45;-22795.03;;;12.14;100.00
5296;BME280;2670;42.720;23.336;2023-05-25T04:48:12;-22793.56;;;12.09;100.00
5296;BME280;2670;42.720;23.336;2023-05-25T04:50:38;-22791.03;;;12.00;100.00
5296;BME280;2670;42.720;23.336;2023-05-25T04:53:05;-22791.78;;;12.03;100.00
5296;BME280;2670;42.720;23.336;2023-05-25T04:55:32;-22794.00;;;12.10;100.00
5296;BME280;2670;42.720;23.336;2023-05-25T04:58:00;-22794.13;;;12.11;100.00
5296;BME280;2670;42.720;23.336;2023-05-25T05:00:27;-22794.72;;;12.13;100.00
5296;BME280;2670;42.720;23.336;2023-05-25T05:02:54;-22800.78;;;12.34;100.00
5296;BME280;2670;42.720;23.336;2023-05-25T05:05:22;-22805.66;;;12.51;100.00
5296;BME280;2670;42.720;23.336;2023-05-25T05:07:48;-22807.28;;;12.56;100.00
5296;BME280;2670;42.720;23.336;2023-05-25T05:10:16;-22806.56;;;12.54;100.00
5296;BME280;2670;42.720;23.336;2023-05-25T05:12:43;-22808.91;;;12.62;100.00
5296;BME280;2670;42.720;23.336;2023-05-25T05:15:11;-22811.13;;;12.69;100.00
5296;BME280;2670;42.720;23.336;2023-05-25T05:17:38;-22812.03;;;12.73;100.00
5296;BME280;2670;42.720;23.336;2023-05-25T05:20:06;-22807.88;;;12.58;100.00
5296;BME280;2670;42.720;23.336;2023-05-25T05:22:33;-22806.25;;;12.53;100.00
5296;BME280;2670;42.720;23.336;2023-05-25T05:24:59;-22811.88;;;12.72;100.00
5296;BME280;2670;42.720;23.336;2023-05-25T05:27:26;-22812.75;;;12.75;100.00
5296;BME280;2670;42.720;23.336;2023-05-25T05:29:53;-22818.09;;;12.93;100.00
5296;BME280;2670;42.720;23.336;2023-05-25T05:32:21;-22817.50;;;12.91;100.00
5296;BME280;2670;42.720;23.336;2023-05-25T05:34:48;-22821.19;;;13.04;100.00
5296;BME280;2670;42.720;23.336;2023-05-25T05:37:14;-22819.41;;;12.98;100.00
5296;BME280;2670;42.720;23.336;2023-05-25T05:39:41;-22820.88;;;13.03;100.00
5296;BME280;2670;42.720;23.336;2023-05-25T05:42:08;-22820.75;;;13.03;100.00
5296;BME280;2670;42.720;23.336;2023-05-25T05:44:34;-22820.88;;;13.03;100.00
5296;BME280;2670;42.720;23.336;2023-05-25T05:47:01;-22818.97;;;12.96;100.00
5296;BME280;2670;42.720;23.336;2023-05-25T05:49:30;-22820.88;;;13.03;100.00
5296;BME280;2670;42.720;23.336;2023-05-25T05:51:56;-22823.41;;;13.12;100.00
5296;BME280;2670;42.720;23.336;2023-05-25T05:54:23;-22823.53;;;13.12;100.00
5296;BME280;2670;42.720;23.336;2023-05-25T05:56:52;-22827.25;;;13.25;100.00
5296;BME280;2670;42.720;23.336;2023-05-25T05:59:20;-22825.16;;;13.18;100.00
5296;BME280;2670;42.720;23.336;2023-05-25T06:01:47;-22831.81;;;13.41;100.00
5296;BME280;2670;42.720;23.336;2023-05-25T06:04:13;-22832.84;;;13.44;100.00
5296;BME280;2670;42.720;23.336;2023-05-25T06:06:42;-22831.53;;;13.40;100.00
5296;BME280;2670;42.720;23.336;2023-05-25T06:09:09;-22832.84;;;13.44;100.00
5296;BME280;2670;42.720;23.336;2023-05-25T06:11:36;-22840.22;;;13.70;100.00
5296;BME280;2670;42.720;23.336;2023-05-25T06:14:04;-22842.88;;;13.79;100.00
5296;BME280;2670;42.720;23.336;2023-05-25T06:16:31;-22843.63;;;13.82;100.00
5296;BME280;2670;42.720;23.336;2023-05-25T06:18:58;-22839.34;;;13.67;100.00
5296;BME280;2670;42.720;23.336;2023-05-25T06:21:24;-22840.22;;;13.70;100.00
5296;BME280;2670;42.720;23.336;2023-05-25T06:23:53;-22843.47;;;13.81;100.00
5296;BME280;2670;42.720;23.336;2023-05-25T06:26:22;-22847.75;;;13.96;100.00
5296;BME280;2670;42.720;23.336;2023-05-25T06:28:49;-22847.91;;;13.97;100.00
5296;BME280;2670;42.720;23.336;2023-05-25T06:31:15;-22855.13;;;14.22;100.00
5296;BME280;2670;42.720;23.336;2023-05-25T06:33:42;-22863.41;;;14.50;100.00
5296;BME280;2670;42.720;23.336;2023-05-25T06:36:09;-22864.72;;;14.55;100.00
5296;BME280;2670;42.720;23.336;2023-05-25T06:38:36;-22862.81;;;14.48;100.00
5296;BME280;2670;42.720;23.336;2023-05-25T06:41:04;-22863.84;;;14.52;100.00
5296;BME280;2670;42.720;23.336;2023-05-25T06:43:31;-22864.13;;;14.53;100.00
5296;BME280;2670;42.720;23.336;2023-05-25T06:45:58;-22870.47;;;14.75;100.00
5296;BME280;2670;42.720;23.336;2023-05-25T06:48:25;-22876.50;;;14.95;100.00
5296;BME280;2670;42.720;23.336;2023-05-25T06:50:51;-22876.50;;;14.95;100.00
5296;BME280;2670;42.720;23.336;2023-05-25T06:53:18;-22880.34;;;15.09;100.00
5296;BME280;2670;42.720;23.336;2023-05-25T06:55:45;-22882.56;;;15.16;100.00
5296;BME280;2670;42.720;23.336;2023-05-25T06:58:13;-22892.72;;;15.52;100.00
5296;BME280;2670;42.720;23.336;2023-05-25T07:00:39;-22901.56;;;15.82;100.00
5296;BME280;2670;42.720;23.336;2023-05-25T07:03:06;-22899.19;;;15.74;100.00
5296;BME280;2670;42.720;23.336;2023-05-25T07:05:33;-22908.63;;;16.07;100.00
5296;BME280;2670;42.720;23.336;2023-05-25T07:07:59;-22909.66;;;16.10;100.00
5296;BME280;2670;42.720;23.336;2023-05-25T07:10:26;-22910.53;;;16.13;100.00
5296;BME280;2670;42.720;23.336;2023-05-25T07:12:53;-22912.59;;;16.21;100.00
5296;BME280;2670;42.720;23.336;2023-05-25T07:15:21;-22915.53;;;16.31;100.00
5296;BME280;2670;42.720;23.336;2023-05-25T07:17:48;-22920.38;;;16.48;100.00
5296;BME280;2670;42.720;23.336;2023-05-25T07:20:15;-22919.22;;;16.43;100.00
5296;BME280;2670;42.720;23.336;2023-05-25T07:22:42;-22918.03;;;16.39;100.00
5296;BME280;2670;42.720;23.336;2023-05-25T07:25:09;-22923.63;;;16.59;100.00
5296;BME280;2670;42.720;23.336;2023-05-25T07:27:35;-22933.31;;;16.92;100.00
5296;BME280;2670;42.720;23.336;2023-05-25T07:30:02;-22928.91;;;16.77;100.00
5296;BME280;2670;42.720;23.336;2023-05-25T07:32:31;-22932.59;;;16.90;100.00
5296;BME280;2670;42.720;23.336;2023-05-25T07:34:58;-22935.69;;;17.01;100.00
5296;BME280;2670;42.720;23.336;2023-05-25T07:37:25;-22936.72;;;17.04;100.00
5296;BME280;2670;42.720;23.336;2023-05-25T07:39:52;-22939.06;;;17.12;100.00
5296;BME280;2670;42.720;23.336;2023-05-25T07:42:21;-22940.38;;;17.17;100.00
5296;BME280;2670;42.720;23.336;2023-05-25T07:44:48;-22942.00;;;17.23;100.00
5296;BME280;2670;42.720;23.336;2023-05-25T07:47:15;-22939.78;;;17.15;100.00
5296;BME280;2670;42.720;23.336;2023-05-25T07:49:43;-22931.56;;;16.86;100.00
5296;BME280;2670;42.720;23.336;2023-05-25T07:52:10;-22931.56;;;16.86;100.00
5296;BME280;2670;42.720;23.336;2023-05-25T07:54:37;-22933.03;;;16.91;100.00
5296;BME280;2670;42.720;23.336;2023-05-25T07:57:04;-22930.09;;;16.81;100.00
5296;BME280;2670;42.720;23.336;2023-05-25T07:59:32;-22925.69;;;16.66;100.00
5296;BME280;2670;42.720;23.336;2023-05-25T08:01:58;-22925.09;;;16.64;100.00
5296;BME280;2670;42.720;23.336;2023-05-25T08:04:25;-22923.91;;;16.60;100.00
5296;BME280;2670;42.720;23.336;2023-05-25T08:06:53;-22919.78;;;16.46;100.00
5296;BME280;2670;42.720;23.336;2023-05-25T08:09:20;-22916.25;;;16.33;100.00
5296;BME280;2670;42.720;23.336;2023-05-25T08:11:47;-22912.59;;;16.21;100.00
5296;BME280;2670;42.720;23.336;2023-05-25T08:14:14;-22908.63;;;16.07;100.00
5296;BME280;2670;42.720;23.336;2023-05-25T08:16:41;-22904.66;;;15.93;100.00
5296;BME280;2670;42.720;23.336;2023-05-25T08:19:08;-22902.88;;;15.87;100.00
5296;BME280;2670;42.720;23.336;2023-05-25T08:21:35;-22902.16;;;15.84;100.00
5296;BME280;2670;42.720;23.336;2023-05-25T08:24:03;-22897.28;;;15.67;100.00
5296;BME280;2670;42.720;23.336;2023-05-25T08:26:32;-22890.22;;;15.43;100.00
5296;BME280;2670;42.720;23.336;2023-05-25T08:29:00;-22881.38;;;15.12;100.00
5296;BME280;2670;42.720;23.336;2023-05-25T08:31:28;-22876.38;;;14.95;100.00
5296;BME280;2670;42.720;23.336;2023-05-25T08:33:55;-22873.28;;;14.84;100.00
5296;BME280;2670;42.720;23.336;2023-05-25T08:36:22;-22867.66;;;14.65;100.00
5296;BME280;2670;42.720;23.336;2023-05-25T08:38:49;-22858.53;;;14.33;100.00
5296;BME280;2670;42.720;23.336;2023-05-25T08:41:18;-22857.19;;;14.29;100.00
5296;BME280;2670;42.720;23.336;2023-05-25T08:43:45;-22852.78;;;14.13;100.00
5296;BME280;2670;42.720;23.336;2023-05-25T08:46:12;-22851.44;;;14.09;100.00
5296;BME280;2670;42.720;23.336;2023-05-25T08:48:40;-22847.59;;;13.95;100.00
5296;BME280;2670;42.720;23.336;2023-05-25T08:51:10;-22848.19;;;13.98;100.00
5296;BME280;2670;42.720;23.336;2023-05-25T08:53:38;-22847.16;;;13.94;100.00
5296;BME280;2670;42.720;23.336;2023-05-25T08:56:09;-22845.09;;;13.87;100.00
5296;BME280;2670;42.720;23.336;2023-05-25T08:58:44;-22841.84;;;13.76;100.00
5296;BME280;2670;42.720;23.336;2023-05-25T09:01:14;-22840.22;;;13.70;100.00
5296;BME280;2670;42.720;23.336;2023-05-25T09:03:44;-22840.38;;;13.70;100.00
5296;BME280;2670;42.720;23.336;2023-05-25T09:06:12;-22837.44;;;13.60;100.00
5296;BME280;2670;42.720;23.336;2023-05-25T09:08:39;-22835.81;;;13.55;100.00
5296;BME280;2670;42.720;23.336;2023-05-25T09:11:06;-22832.84;;;13.44;100.00
5296;BME280;2670;42.720;23.336;2023-05-25T09:13:34;-22833.16;;;13.45;100.00
5296;BME280;2670;42.720;23.336;2023-05-25T09:16:03;-22832.84;;;13.44;100.00
5296;BME280;2670;42.720;23.336;2023-05-25T09:18:30;-22832.41;;;13.43;100.00
5296;BME280;2670;42.720;23.336;2023-05-25T09:20:56;-22832.84;;;13.44;100.00
5296;BME280;2670;42.720;23.336;2023-05-25T09:23:23;-22833.59;;;13.47;100.00
5296;BME280;2670;42.720;23.336;2023-05-25T09:25:50;-22834.63;;;13.51;100.00
5296;BME280;2670;42.720;23.336;2023-05-25T09:28:19;-22831.53;;;13.40;100.00
5296;BME280;2670;42.720;23.336;2023-05-25T09:30:46;-22829.31;;;13.32;100.00
5296;BME280;2670;42.720;23.336;2023-05-25T09:33:14;-22832.25;;;13.42;100.00
5296;BME280;2670;42.720;23.336;2023-05-25T09:35:43;-22831.53;;;13.40;100.00
5296;BME280;2670;42.720;23.336;2023-05-25T09:38:12;-22831.81;;;13.41;100.00
5296;BME280;2670;42.720;23.336;2023-05-25T09:40:39;-22837.56;;;13.61;100.00
5296;BME280;2670;42.720;23.336;2023-05-25T09:43:06;-22836.25;;;13.56;100.00
5296;BME280;2670;42.720;23.336;2023-05-25T09:45:33;-22834.47;;;13.50;100.00
5296;BME280;2670;42.720;23.336;2023-05-25T09:48:00;-22834.47;;;13.50;100.00
5296;BME280;2670;42.720;23.336;2023-05-25T09:50:29;-22837.88;;;13.62;100.00
5296;BME280;2670;42.720;23.336;2023-05-25T09:52:58;-22838.31;;;13.63;100.00
5296;BME280;2670;42.720;23.336;2023-05-25T09:55:26;-22835.22;;;13.53;100.00
5296;BME280;2670;42.720;23.336;2023-05-25T09:57:53;-22836.25;;;13.56;100.00
5296;BME280;2670;42.720;23.336;2023-05-25T10:00:21;-22839.66;;;13.68;100.00
5296;BME280;2670;42.720;23.336;2023-05-25T10:02:48;-22840.09;;;13.69;100.00
5296;BME280;2670;42.720;23.336;2023-05-25T10:05:14;-22839.66;;;13.68;100.00
5296;BME280;2670;42.720;23.336;2023-05-25T10:07:43;-22841.56;;;13.75;100.00
5296;BME280;2670;42.720;23.336;2023-05-25T10:10:12;-22843.19;;;13.80;100.00
5296;BME280;2670;42.720;23.336;2023-05-25T10:12:40;-22844.81;;;13.86;100.00
5296;BME280;2670;42.720;23.336;2023-05-25T10:15:08;-22849.22;;;14.01;100.00
5296;BME280;2670;42.720;23.336;2023-05-25T10:17:42;-22854.97;;;14.21;100.00
5296;BME280;2670;42.720;23.336;2023-05-25T10:20:11;-22851.88;;;14.10;100.00
5296;BME280;2670;42.720;23.336;2023-05-25T10:22:45;-22851.44;;;14.09;100.00
5296;BME280;2670;42.720;23.336;2023-05-25T10:25:16;-22853.22;;;14.15;100.00
5296;BME280;2670;42.720;23.336;2023-05-25T10:27:52;-22852.47;;;14.12;100.00
5296;BME280;2670;42.720;23.336;2023-05-25T10:30:22;-22856.16;;;14.25;100.00
5296;BME280;2670;42.720;23.336;2023-05-25T10:32:51;-22860.00;;;14.38;100.00
5296;BME280;2670;42.720;23.336;2023-05-25T10:35:18;-22860.59;;;14.40;100.00
5296;BME280;2670;42.720;23.336;2023-05-25T10:37:46;-22856.31;;;14.26;100.00
5296;BME280;2670;42.720;23.336;2023-05-25T10:40:16;-22858.09;;;14.32;100.00
5296;BME280;2670;42.720;23.336;2023-05-25T10:42:44;-22857.03;;;14.28;100.00
5296;BME280;2670;42.720;23.336;2023-05-25T10:45:12;-22855.72;;;14.24;100.00
5296;BME280;2670;42.720;23.336;2023-05-25T10:47:40;-22858.53;;;14.33;100.00
5296;BME280;2670;42.720;23.336;2023-05-25T10:50:18;-22863.25;;;14.50;100.00
5296;BME280;2670;42.720;23.336;2023-05-25T10:52:56;-22865.16;;;14.56;100.00
5296;BME280;2670;42.720;23.336;2023-05-25T10:55:24;-22862.81;;;14.48;100.00
5296;BME280;2670;42.720;23.336;2023-05-25T10:58:06;-22866.19;;;14.60;100.00
5296;BME280;2670;42.720;23.336;2023-05-25T11:00:33;-22865.31;;;14.57;100.00
5296;BME280;2670;42.720;23.336;2023-05-25T11:03:00;-22866.19;;;14.60;100.00
5296;BME280;2670;42.720;23.336;2023-05-25T11:05:45;-22867.66;;;14.65;100.00
5296;BME280;2670;42.720;23.336;2023-05-25T11:08:20;-22864.13;;;14.53;100.00
5296;BME280;2670;42.720;23.336;2023-05-25T11:10:51;-22866.78;;;14.62;100.00
5296;BME280;2670;42.720;23.336;2023-05-25T11:13:23;-22866.94;;;14.62;100.00
5296;BME280;2670;42.720;23.336;2023-05-25T11:16:14;-22873.56;;;14.85;100.00
5296;BME280;2670;42.720;23.336;2023-05-25T11:18:42;-22868.69;;;14.68;100.00
5296;BME280;2670;42.720;23.336;2023-05-25T11:21:14;-22867.53;;;14.64;100.00
5296;BME280;2670;42.720;23.336;2023-05-25T11:23:57;-22873.28;;;14.84;100.00
5296;BME280;2670;42.720;23.336;2023-05-25T11:26:26;-22873.41;;;14.85;100.00
5296;BME280;2670;42.720;23.336;2023-05-25T11:28:54;-22872.69;;;14.82;100.00
5296;BME280;2670;42.720;23.336;2023-05-25T11:31:27;-22873.84;;;14.86;100.00
5296;BME280;2670;42.720;23.336;2023-05-25T11:33:55;-22878.00;;;15.01;100.00
5296;BME280;2670;42.720;23.336;2023-05-25T11:36:23;-22877.41;;;14.99;100.00
5296;BME280;2670;42.720;23.336;2023-05-25T11:38:50;-22879.00;;;15.04;100.00
5296;BME280;2670;42.720;23.336;2023-05-25T11:41:20;-22875.94;;;14.93;100.00
5296;BME280;2670;42.720;23.336;2023-05-25T11:43:47;-22876.97;;;14.97;100.00
5296;BME280;2670;42.720;23.336;2023-05-25T11:46:15;-22880.34;;;15.09;100.00
5296;BME280;2670;42.720;23.336;2023-05-25T11:48:44;-22879.16;;;15.05;100.00
5296;BME280;2670;42.720;23.336;2023-05-25T11:51:12;-22876.50;;;14.95;100.00
5296;BME280;2670;42.720;23.336;2023-05-25T11:53:42;-22880.94;;;15.11;100.00
5296;BME280;2670;42.720;23.336;2023-05-25T11:56:10;-22883.44;;;15.19;100.00
5296;BME280;2670;42.720;23.336;2023-05-25T11:58:39;-22891.38;;;15.47;100.00
5296;BME280;2670;42.720;23.336;2023-05-25T12:01:13;-22894.47;;;15.58;100.00
5296;BME280;2670;42.720;23.336;2023-05-25T12:03:40;-22892.41;;;15.51;100.00
5296;BME280;2670;42.720;23.336;2023-05-25T12:06:08;-22898.03;;;15.70;100.00
5296;BME280;2670;42.720;23.336;2023-05-25T12:08:36;-22900.97;;;15.80;100.00
5296;BME280;2670;42.720;23.336;2023-05-25T12:11:03;-22903.91;;;15.90;100.00
5296;BME280;2670;42.720;23.336;2023-05-25T12:13:30;-22906.41;;;15.99;100.00
5296;BME280;2670;42.720;23.336;2023-05-25T12:15:58;-22912.28;;;16.19;100.00
5296;BME280;2670;42.720;23.336;2023-05-25T12:18:26;-22915.69;;;16.31;100.00
5296;BME280;2670;42.720;23.336;2023-05-25T12:20:53;-22915.81;;;16.32;100.00
5296;BME280;2670;42.720;23.336;2023-05-25T12:23:21;-22922.28;;;16.54;100.00
5296;BME280;2670;42.720;23.336;2023-05-25T12:25:48;-22923.19;;;16.57;100.00
5296;BME280;2670;42.720;23.336;2023-05-25T12:28:15;-22924.66;;;16.62;100.00
5296;BME280;2670;42.720;23.336;2023-05-25T12:30:42;-22922.16;;;16.54;100.00
5296;BME280;2670;42.720;23.336;2023-05-25T12:33:12;-22930.38;;;16.82;100.00
5296;BME280;2670;42.720;23.336;2023-05-25T12:35:49;-22928.19;;;16.75;100.00
5296;BME280;2670;42.720;23.336;2023-05-25T12:38:17;-22932.16;;;16.88;100.00
5296;BME280;2670;42.720;23.336;2023-05-25T12:40:44;-22937.88;;;17.08;100.00
5296;BME280;2670;42.720;23.336;2023-05-25T12:43:11;-22938.03;;;17.09;100.00
5296;BME280;2670;42.720;23.336;2023-05-25T12:45:39;-22943.47;;;17.28;100.00
5296;BME280;2670;42.720;23.336;2023-05-25T12:48:06;-22943.63;;;17.28;100.00
5296;BME280;2670;42.720;23.336;2023-05-25T12:50:34;-22944.06;;;17.30;100.00
5296;BME280;2670;42.720;23.336;2023-05-25T12:53:02;-22941.69;;;17.22;100.00
5296;BME280;2670;42.720;23.336;2023-05-25T12:55:30;-22944.66;;;17.32;100.00